Time;durP1;ratioP1;P1;durP2;ratioP2;P2;SDS_P1;SDS_P2;PMS_P1;PMS_P2;Temp;Humidity;BMP_temperature;BMP_pressure;BME280_temperature;BME280_humidity;BME280_pressure;Samples;Min_cycle;Max_cycle;Signal;HPM_P1;HPM_P2
2024/01/09 00:00:23;;;;;;;4.83;4.00;;;-5.10;99.90;;;;;;5089522;28;20286;-82
2024/01/09 00:02:50;;;;;;;4.77;4.27;;;-5.10;99.90;;;;;;5088389;28;20210;-83
2024/01/09 00:05:17;;;;;;;6.37;4.20;;;-5.10;99.90;;;;;;5083415;28;20245;-83
2024/01/09 00:07:44;;;;;;;8.67;4.40;;;-5.10;99.90;;;;;;5089071;28;20238;-82
2024/01/09 00:10:12;;;;;;;5.47;4.20;;;-5.10;99.90;;;;;;5088942;28;20325;-83
2024/01/09 00:12:39;;;;;;;6.30;4.20;;;-5.20;99.90;;;;;;5089374;28;20629;-83
2024/01/09 00:15:09;;;;;;;4.63;3.70;;;-5.10;99.90;;;;;;5089048;28;20980;-83
2024/01/09 00:17:36;;;;;;;5.93;4.23;;;-5.20;99.90;;;;;;5089258;28;20280;-83
2024/01/09 00:20:03;;;;;;;6.80;4.27;;;-5.20;99.90;;;;;;5088888;28;20268;-83
2024/01/09 00:22:30;;;;;;;6.90;4.37;;;-5.20;99.90;;;;;;5088686;28;20295;-85
2024/01/09 00:24:57;;;;;;;5.07;4.53;;;-5.30;99.90;;;;;;5088903;28;20205;-76
2024/01/09 00:27:25;;;;;;;5.70;4.10;;;-5.30;99.90;;;;;;5088751;28;20238;-77
2024/01/09 00:29:52;;;;;;;5.67;4.67;;;-5.30;99.90;;;;;;5088460;28;20281;-78
2024/01/09 00:32:19;;;;;;;5.47;4.33;;;-5.30;99.90;;;;;;5088281;28;20230;-78
2024/01/09 00:34:47;;;;;;;5.03;3.97;;;-5.30;99.90;;;;;;5088285;28;20215;-80
2024/01/09 00:37:19;;;;;;;5.57;4.10;;;-5.30;99.90;;;;;;5085831;28;20662;-82
2024/01/09 00:39:47;;;;;;;4.70;3.87;;;-5.30;99.90;;;;;;5087774;28;20260;-80
2024/01/09 00:42:14;;;;;;;4.43;3.97;;;-5.40;99.90;;;;;;5088031;28;20625;-81
2024/01/09 00:44:43;;;;;;;5.60;4.50;;;-5.40;99.90;;;;;;5088250;28;20207;-80
2024/01/09 00:47:10;;;;;;;6.33;4.33;;;-5.40;99.90;;;;;;5088239;28;20217;-79
2024/01/09 00:49:37;;;;;;;7.73;4.37;;;-5.40;99.90;;;;;;5088180;28;20298;-81
2024/01/09 00:52:06;;;;;;;4.43;4.03;;;-5.40;99.90;;;;;;5088330;28;20229;-80
2024/01/09 00:54:36;;;;;;;4.57;3.90;;;-5.40;99.90;;;;;;5085856;28;20628;-83
2024/01/09 00:57:08;;;;;;;6.23;4.30;;;-5.40;99.90;;;;;;5088571;28;20309;-82
2024/01/09 00:59:36;;;;;;;5.63;4.37;;;-5.40;99.90;;;;;;5088035;28;20280;-80
2024/01/09 01:02:05;;;;;;;6.13;4.33;;;-5.50;99.90;;;;;;5087807;28;20275;-81
2024/01/09 01:04:32;;;;;;;4.93;4.27;;;-5.40;99.90;;;;;;5088354;28;20332;-82
2024/01/09 01:07:02;;;;;;;8.57;4.57;;;-5.40;99.90;;;;;;5088062;28;20242;-83
2024/01/09 01:09:30;;;;;;;6.93;4.40;;;-5.50;99.90;;;;;;5087195;28;20327;-81
2024/01/09 01:11:57;;;;;;;6.00;4.30;;;-5.50;99.90;;;;;;5088217;28;20203;-82
2024/01/09 01:14:24;;;;;;;6.23;4.20;;;-5.50;99.90;;;;;;5087343;28;20283;-83
2024/01/09 01:16:52;;;;;;;6.73;4.57;;;-5.50;99.90;;;;;;5087905;28;20299;-82
2024/01/09 01:19:22;;;;;;;6.40;4.43;;;-5.60;99.90;;;;;;5087569;28;20770;-82
2024/01/09 01:21:50;;;;;;;4.10;3.70;;;-5.60;99.90;;;;;;5088227;28;20203;-82
2024/01/09 01:24:17;;;;;;;6.00;4.23;;;-5.60;99.90;;;;;;5086888;28;20293;-82
2024/01/09 01:26:45;;;;;;;4.50;4.00;;;-5.60;99.90;;;;;;5087919;28;20219;-82
2024/01/09 01:29:12;;;;;;;5.57;4.00;;;-5.60;99.90;;;;;;5087702;28;20638;-79
2024/01/09 01:31:39;;;;;;;4.63;4.23;;;-5.60;99.90;;;;;;5087070;28;20544;-82
2024/01/09 01:34:06;;;;;;;6.77;3.93;;;-5.60;99.90;;;;;;5087616;28;20584;-80
2024/01/09 01:36:36;;;;;;;6.77;4.53;;;-5.60;99.90;;;;;;5087728;28;20207;-80
2024/01/09 01:39:03;;;;;;;6.33;4.20;;;-5.60;99.90;;;;;;5087491;28;20215;-79
2024/01/09 01:41:30;;;;;;;5.03;4.00;;;-5.60;99.90;;;;;;5087079;28;20304;-79
2024/01/09 01:43:58;;;;;;;7.47;4.30;;;-5.60;99.90;;;;;;5087456;28;20554;-84
2024/01/09 01:46:25;;;;;;;4.90;4.17;;;-5.70;99.90;;;;;;5087193;28;20210;-84
2024/01/09 01:48:52;;;;;;;6.50;4.60;;;-5.70;99.90;;;;;;5087189;28;20210;-83
2024/01/09 01:51:19;;;;;;;4.50;3.90;;;-5.70;99.90;;;;;;5086963;28;20279;-82
2024/01/09 01:53:47;;;;;;;6.20;4.40;;;-5.70;99.90;;;;;;5087240;28;20245;-80
2024/01/09 01:56:15;;;;;;;5.10;4.00;;;-5.70;99.90;;;;;;5087363;28;20315;-84
2024/01/09 01:58:43;;;;;;;5.67;4.17;;;-5.70;99.90;;;;;;5087004;28;20237;-84
2024/01/09 02:01:10;;;;;;;5.60;3.87;;;-5.70;99.90;;;;;;5087085;28;20293;-83
2024/01/09 02:03:38;;;;;;;6.10;4.20;;;-5.70;99.90;;;;;;5087368;28;20206;-83
2024/01/09 02:06:07;;;;;;;5.57;4.20;;;-5.70;99.90;;;;;;5087152;28;20210;-82
2024/01/09 02:08:37;;;;;;;7.50;4.43;;;-5.70;99.90;;;;;;5086764;28;20226;-83
2024/01/09 02:11:05;;;;;;;5.00;4.10;;;-5.70;99.90;;;;;;5087442;28;20297;-83
2024/01/09 02:13:32;;;;;;;5.00;3.83;;;-5.70;99.90;;;;;;5086974;28;20673;-82
2024/01/09 02:15:59;;;;;;;4.87;4.07;;;-5.70;99.90;;;;;;5087459;28;20292;-83
2024/01/09 02:18:27;;;;;;;5.63;3.80;;;-5.70;99.90;;;;;;5087642;28;20221;-84
2024/01/09 02:20:54;;;;;;;8.53;4.40;;;-5.70;99.90;;;;;;5087455;28;20337;-82
2024/01/09 02:23:21;;;;;;;5.53;4.33;;;-5.70;99.90;;;;;;5085821;28;20238;-81
2024/01/09 02:25:50;;;;;;;5.63;4.40;;;-5.70;99.90;;;;;;5088904;28;20262;-80
2024/01/09 02:28:24;;;;;;;5.10;4.03;;;-5.70;99.90;;;;;;5090721;28;20275;-80
2024/01/09 02:31:00;;;;;;;6.07;4.83;;;-5.70;99.90;;;;;;5091056;28;20195;-83
2024/01/09 02:33:29;;;;;;;6.83;4.43;;;-5.70;99.90;;;;;;5090886;28;20246;-82
2024/01/09 02:35:56;;;;;;;5.77;4.67;;;-5.70;99.90;;;;;;5090996;28;20210;-82
2024/01/09 02:38:24;;;;;;;6.80;4.20;;;-5.70;99.90;;;;;;5090462;28;20671;-80
2024/01/09 02:40:53;;;;;;;5.13;4.20;;;-5.80;99.90;;;;;;5090607;28;20203;-81
2024/01/09 02:43:20;;;;;;;6.10;4.17;;;-5.80;99.90;;;;;;5090967;28;20210;-81
2024/01/09 02:45:47;;;;;;;6.07;4.30;;;-5.80;99.90;;;;;;5090559;28;20286;-79
2024/01/09 02:48:15;;;;;;;5.60;4.30;;;-5.80;99.90;;;;;;5090389;28;20238;-82
2024/01/09 02:50:42;;;;;;;6.50;4.50;;;-5.80;99.90;;;;;;5090867;28;20281;-85
2024/01/09 02:53:09;;;;;;;4.97;4.03;;;-5.90;99.90;;;;;;5089974;28;20283;-82
2024/01/09 02:55:38;;;;;;;5.17;4.17;;;-5.90;99.90;;;;;;5089885;28;20733;-81
2024/01/09 02:58:07;;;;;;;6.43;4.40;;;-5.90;99.90;;;;;;5090248;28;20721;-81
2024/01/09 03:00:34;;;;;;;4.73;3.70;;;-5.90;99.90;;;;;;5090350;28;20271;-81
2024/01/09 03:03:03;;;;;;;4.70;4.20;;;-5.90;99.90;;;;;;5090107;28;20214;-81
2024/01/09 03:05:33;;;;;;;5.13;3.80;;;-5.90;99.90;;;;;;5090397;28;20222;-81
2024/01/09 03:08:01;;;;;;;8.20;5.13;;;-5.90;99.90;;;;;;5090042;28;20234;-82
2024/01/09 03:10:31;;;;;;;5.63;4.13;;;-5.90;99.90;;;;;;5090084;28;20641;-81
2024/01/09 03:13:00;;;;;;;7.63;4.47;;;-5.90;99.90;;;;;;5090709;28;20210;-79
2024/01/09 03:15:27;;;;;;;7.30;4.50;;;-5.90;99.90;;;;;;5089838;28;20241;-78
2024/01/09 03:17:55;;;;;;;5.67;4.23;;;-5.90;99.90;;;;;;5090096;28;20207;-82
2024/01/09 03:20:22;;;;;;;5.70;4.50;;;-5.90;99.90;;;;;;5089564;28;20226;-85
2024/01/09 03:22:52;;;;;;;6.03;4.43;;;-6.00;99.90;;;;;;5090000;28;20616;-82
2024/01/09 03:25:19;;;;;;;4.97;3.97;;;-6.00;99.90;;;;;;5090034;28;20654;-81
2024/01/09 03:27:50;;;;;;;6.23;4.40;;;-6.00;99.90;;;;;;5090123;28;20294;-81
2024/01/09 03:30:17;;;;;;;5.60;3.87;;;-6.00;99.90;;;;;;5089056;28;20218;-81
2024/01/09 03:32:45;;;;;;;4.53;3.90;;;-6.00;99.90;;;;;;5076438;28;20214;-79
2024/01/09 03:35:12;;;;;;;6.27;4.17;;;-6.00;99.90;;;;;;5081495;28;20212;-79
2024/01/09 03:37:43;;;;;;;5.50;3.90;;;-6.00;99.90;;;;;;5087346;28;20225;-79
2024/01/09 03:40:13;;;;;;;7.97;4.27;;;-6.10;99.90;;;;;;5087333;28;20705;-80
2024/01/09 03:42:40;;;;;;;6.30;4.13;;;-6.00;99.90;;;;;;5087488;28;20206;-79
2024/01/09 03:45:08;;;;;;;5.23;4.40;;;-6.10;99.90;;;;;;5087891;28;20215;-79
2024/01/09 03:47:36;;;;;;;6.80;4.03;;;-6.10;99.90;;;;;;5087471;28;20626;-81
2024/01/09 03:50:09;;;;;;;6.33;4.77;;;-6.10;99.90;;;;;;5087676;28;21020;-80
2024/01/09 03:52:36;;;;;;;5.17;4.10;;;-6.10;99.90;;;;;;5087236;28;20221;-81
2024/01/09 03:55:06;;;;;;;5.03;4.20;;;-6.10;99.90;;;;;;5087900;28;20574;-80
2024/01/09 03:57:35;;;;;;;6.97;4.43;;;-6.10;99.90;;;;;;5087687;28;20207;-81
2024/01/09 04:00:03;;;;;;;5.30;4.27;;;-6.10;99.90;;;;;;5086954;28;20229;-81
2024/01/09 04:02:33;;;;;;;4.73;4.07;;;-6.10;99.90;;;;;;5066902;28;20215;-80
2024/01/09 04:05:00;;;;;;;5.63;4.53;;;-6.10;99.90;;;;;;5088688;28;20198;-79
2024/01/09 04:07:27;;;;;;;6.53;4.40;;;-6.10;99.90;;;;;;5088512;28;20235;-80
2024/01/09 04:09:53;;;;;;;6.80;4.80;;;-6.20;99.90;;;;;;5089138;28;20324;-79
2024/01/09 04:12:20;;;;;;;7.17;4.70;;;-6.20;99.90;;;;;;5089149;28;20292;-79
2024/01/09 04:14:48;;;;;;;5.70;4.40;;;-6.20;99.90;;;;;;5089153;28;20233;-79
2024/01/09 04:17:15;;;;;;;6.17;4.47;;;-6.20;99.90;;;;;;5089082;28;20206;-80
2024/01/09 04:19:42;;;;;;;6.27;4.67;;;-6.20;99.90;;;;;;5088898;28;20324;-81
2024/01/09 04:22:09;;;;;;;5.43;3.97;;;-6.30;99.90;;;;;;5089019;28;20209;-80
2024/01/09 04:24:36;;;;;;;6.83;4.53;;;-6.30;99.90;;;;;;5088684;28;20286;-80
2024/01/09 04:27:03;;;;;;;4.73;4.07;;;-6.30;99.90;;;;;;5089018;28;20297;-80
2024/01/09 04:29:30;;;;;;;5.90;4.33;;;-6.30;99.90;;;;;;5088181;28;20209;-80
2024/01/09 04:31:58;;;;;;;5.23;4.27;;;-6.30;99.90;;;;;;5088833;28;20218;-80
2024/01/09 04:34:25;;;;;;;7.10;4.40;;;-6.30;99.90;;;;;;5088845;28;20208;-82
2024/01/09 04:36:51;;;;;;;4.47;3.70;;;-6.30;99.90;;;;;;5088573;28;20264;-80
2024/01/09 04:39:18;;;;;;;6.27;4.27;;;-6.30;99.90;;;;;;5087800;28;20330;-79
2024/01/09 04:41:45;;;;;;;5.97;4.07;;;-6.30;99.90;;;;;;5088514;28;20298;-80
2024/01/09 04:44:12;;;;;;;5.63;4.73;;;-6.30;99.90;;;;;;5088474;28;20305;-81
2024/01/09 04:46:39;;;;;;;6.27;4.07;;;-6.30;99.90;;;;;;5088108;28;20213;-79
2024/01/09 04:49:07;;;;;;;6.40;4.30;;;-6.40;99.90;;;;;;5087297;28;20229;-80
2024/01/09 04:51:34;;;;;;;7.67;4.53;;;-6.40;99.90;;;;;;5088034;28;20318;-80
2024/01/09 04:54:01;;;;;;;7.87;4.87;;;-6.40;99.90;;;;;;5087544;28;20237;-80
2024/01/09 04:56:28;;;;;;;6.87;4.53;;;-6.40;99.90;;;;;;5087867;28;20735;-80
2024/01/09 04:58:55;;;;;;;6.63;4.43;;;-6.40;99.90;;;;;;5088395;28;20308;-81
2024/01/09 05:01:22;;;;;;;5.43;4.07;;;-6.40;99.90;;;;;;5087900;28;20290;-81
2024/01/09 05:03:50;;;;;;;6.23;4.07;;;-6.40;99.90;;;;;;5088102;28;20670;-79
2024/01/09 05:06:18;;;;;;;6.07;4.60;;;-6.40;99.90;;;;;;5087473;28;20232;-80
2024/01/09 05:08:47;;;;;;;5.10;4.47;;;-6.40;99.90;;;;;;5087314;28;20326;-81
2024/01/09 05:11:14;;;;;;;6.13;4.90;;;-6.40;99.90;;;;;;5087939;28;20260;-80
2024/01/09 05:13:41;;;;;;;5.20;4.30;;;-6.40;99.90;;;;;;5087715;28;20206;-79
2024/01/09 05:16:08;;;;;;;6.37;4.70;;;-6.40;99.90;;;;;;5088044;28;20213;-79
2024/01/09 05:18:34;;;;;;;6.93;4.70;;;-6.40;99.90;;;;;;5087518;28;20297;-80
2024/01/09 05:21:02;;;;;;;6.57;4.60;;;-6.40;99.90;;;;;;5087879;28;20339;-80
2024/01/09 05:23:31;;;;;;;7.03;5.20;;;-6.40;99.90;;;;;;5087193;28;20260;-80
2024/01/09 05:25:57;;;;;;;8.03;4.90;;;-6.50;99.90;;;;;;5087771;28;20297;-80
2024/01/09 05:28:24;;;;;;;6.00;4.37;;;-6.50;99.90;;;;;;5087544;28;20289;-79
2024/01/09 05:30:51;;;;;;;6.33;4.37;;;-6.50;99.90;;;;;;5087595;28;20305;-79
2024/01/09 05:33:18;;;;;;;6.20;4.37;;;-6.50;99.90;;;;;;5087530;28;20310;-79
2024/01/09 05:35:45;;;;;;;6.57;4.97;;;-6.50;99.90;;;;;;5087544;28;20297;-80
2024/01/09 05:38:12;;;;;;;7.27;4.87;;;-6.60;99.90;;;;;;5087408;28;20209;-80
2024/01/09 05:40:40;;;;;;;8.73;4.80;;;-6.50;99.90;;;;;;5087163;28;20677;-80
2024/01/09 05:43:07;;;;;;;5.57;4.90;;;-6.60;99.90;;;;;;5087702;28;20248;-80
2024/01/09 05:45:34;;;;;;;7.10;4.67;;;-6.60;99.90;;;;;;5087484;28;20337;-80
2024/01/09 05:48:01;;;;;;;8.03;5.33;;;-6.50;99.90;;;;;;5087515;28;20301;-80
2024/01/09 05:50:28;;;;;;;5.40;4.37;;;-6.60;99.90;;;;;;5086162;28;20313;-79
2024/01/09 05:52:55;;;;;;;5.70;4.73;;;-6.60;99.90;;;;;;5086712;28;20301;-80
2024/01/09 05:55:22;;;;;;;7.73;4.43;;;-6.60;99.90;;;;;;5086439;28;20214;-81
2024/01/09 05:57:50;;;;;;;7.20;5.00;;;-6.60;99.90;;;;;;5086880;28;20214;-82
2024/01/09 06:00:18;;;;;;;7.27;4.83;;;-6.60;99.90;;;;;;5086537;28;20645;-79
2024/01/09 06:02:45;;;;;;;5.50;4.00;;;-6.60;99.90;;;;;;5084940;28;20291;-81
2024/01/09 06:05:12;;;;;;;4.80;4.30;;;-6.70;99.90;;;;;;5084632;28;20296;-80
2024/01/09 06:07:39;;;;;;;4.43;4.00;;;-6.70;99.90;;;;;;5086565;28;20200;-80
2024/01/09 06:10:07;;;;;;;8.17;4.47;;;-6.70;99.90;;;;;;5086115;28;20240;-80
2024/01/09 06:12:33;;;;;;;8.47;5.00;;;-6.70;99.90;;;;;;5086313;28;20209;-80
2024/01/09 06:15:02;;;;;;;7.07;4.63;;;-6.70;99.90;;;;;;5086650;28;20296;-80
2024/01/09 06:17:29;;;;;;;6.97;4.67;;;-6.70;99.90;;;;;;5086497;28;20213;-82
2024/01/09 06:20:00;;;;;;;6.57;4.60;;;-6.70;99.90;;;;;;5086473;28;20317;-80
2024/01/09 06:22:27;;;;;;;7.40;5.13;;;-6.70;99.90;;;;;;5086057;28;20202;-79
2024/01/09 06:24:54;;;;;;;7.47;5.00;;;-6.70;99.90;;;;;;5086311;28;20279;-79
2024/01/09 06:27:20;;;;;;;7.80;5.07;;;-6.70;99.90;;;;;;5086624;28;20321;-81
2024/01/09 06:29:47;;;;;;;7.30;5.40;;;-6.70;99.90;;;;;;5086420;28;20771;-81
2024/01/09 06:32:15;;;;;;;7.40;5.20;;;-6.70;99.90;;;;;;5086358;28;20573;-81
2024/01/09 06:34:42;;;;;;;8.03;5.43;;;-6.70;99.90;;;;;;5086161;28;20214;-81
2024/01/09 06:37:09;;;;;;;5.93;5.17;;;-6.70;99.90;;;;;;5086271;28;20301;-81
2024/01/09 06:39:37;;;;;;;11.20;5.70;;;-6.70;99.90;;;;;;5085869;28;20286;-80
2024/01/09 06:42:04;;;;;;;10.97;5.37;;;-6.70;99.90;;;;;;5086732;28;20209;-81
2024/01/09 06:44:31;;;;;;;7.33;4.83;;;-6.70;99.90;;;;;;5086340;28;20248;-82
2024/01/09 06:46:58;;;;;;;10.37;5.60;;;-6.70;99.90;;;;;;5086331;28;20202;-82
2024/01/09 06:49:26;;;;;;;10.63;5.60;;;-6.70;99.90;;;;;;5086024;28;20736;-81
2024/01/09 06:51:53;;;;;;;8.17;5.10;;;-6.70;99.90;;;;;;5086455;28;20211;-83
2024/01/09 06:54:21;;;;;;;8.43;6.03;;;-6.70;99.90;;;;;;5085836;28;20271;-81
2024/01/09 06:56:48;;;;;;;6.73;5.37;;;-6.70;99.90;;;;;;5086376;28;20214;-80
2024/01/09 06:59:15;;;;;;;7.17;4.67;;;-6.80;99.90;;;;;;5085871;28;20242;-81
2024/01/09 07:01:42;;;;;;;6.67;4.80;;;-6.70;99.90;;;;;;5086581;28;20218;-81
2024/01/09 07:04:09;;;;;;;25.97;6.80;;;-6.70;99.90;;;;;;5086941;28;20301;-79
2024/01/09 07:06:37;;;;;;;15.13;5.50;;;-6.60;99.90;;;;;;5086323;28;20211;-82
2024/01/09 07:09:04;;;;;;;30.90;6.70;;;-6.50;99.90;;;;;;5086255;28;20328;-79
2024/01/09 07:11:31;;;;;;;14.73;6.00;;;-6.40;99.90;;;;;;5087925;28;20238;-81
2024/01/09 07:13:58;;;;;;;16.57;5.20;;;-6.40;99.90;;;;;;5090320;28;20301;-80
2024/01/09 07:16:25;;;;;;;8.43;5.87;;;-6.40;99.90;;;;;;5090142;28;20298;-81
2024/01/09 07:18:52;;;;;;;5.83;4.57;;;-6.40;99.90;;;;;;5090411;28;20214;-81
2024/01/09 07:21:19;;;;;;;9.00;5.10;;;-6.40;99.90;;;;;;5090179;28;20326;-80
2024/01/09 07:23:47;;;;;;;9.03;4.90;;;-6.40;99.90;;;;;;5089925;28;20245;-80
2024/01/09 07:26:14;;;;;;;9.47;5.30;;;-6.50;99.90;;;;;;5090253;28;20215;-81
2024/01/09 07:28:41;;;;;;;6.60;5.00;;;-6.60;99.90;;;;;;5089784;28;20276;-82
2024/01/09 07:31:09;;;;;;;7.63;5.37;;;-6.50;99.90;;;;;;5089987;28;20209;-81
2024/01/09 07:33:36;;;;;;;9.30;5.17;;;-6.60;99.90;;;;;;5090271;28;20300;-81
2024/01/09 07:36:03;;;;;;;9.60;5.53;;;-6.60;99.90;;;;;;5090334;28;20297;-81
2024/01/09 07:38:30;;;;;;;8.23;5.10;;;-6.60;99.90;;;;;;5089666;28;20233;-81
2024/01/09 07:40:58;;;;;;;8.80;5.10;;;-6.70;99.90;;;;;;5089496;28;20711;-81
2024/01/09 07:43:25;;;;;;;9.10;5.27;;;-6.70;99.90;;;;;;5089695;28;20206;-81
2024/01/09 07:45:52;;;;;;;8.37;4.90;;;-6.70;99.90;;;;;;5089780;28;20297;-81
2024/01/09 07:48:19;;;;;;;7.50;5.43;;;-6.60;99.90;;;;;;5089783;28;20257;-79
2024/01/09 07:50:49;;;;;;;7.57;4.83;;;-6.60;99.90;;;;;;5089537;28;20317;-80
2024/01/09 07:53:15;;;;;;;7.73;5.60;;;-6.70;99.90;;;;;;5089517;28;20234;-81
2024/01/09 07:55:43;;;;;;;9.07;5.83;;;-6.60;99.90;;;;;;5089820;28;20214;-81
2024/01/09 07:58:11;;;;;;;7.77;5.40;;;-6.60;99.90;;;;;;5089734;28;20209;-80
2024/01/09 08:00:38;;;;;;;9.47;5.60;;;-6.60;99.90;;;;;;5089529;28;20323;-80
2024/01/09 08:03:05;;;;;;;8.87;5.50;;;-6.50;99.90;;;;;;5089747;28;20240;-80
2024/01/09 08:05:32;;;;;;;7.30;5.07;;;-6.50;99.90;;;;;;5089635;28;20216;-81
2024/01/09 08:07:59;;;;;;;9.57;5.77;;;-6.50;99.90;;;;;;5089025;28;20298;-80
2024/01/09 08:10:26;;;;;;;11.07;5.87;;;-6.40;99.90;;;;;;5089214;28;20317;-81
2024/01/09 08:12:53;;;;;;;9.70;6.00;;;-6.40;99.90;;;;;;5089313;28;20213;-81
2024/01/09 08:15:22;;;;;;;8.60;6.13;;;-6.30;99.90;;;;;;5088756;28;20241;-78
2024/01/09 08:17:48;;;;;;;10.37;6.03;;;-6.40;99.90;;;;;;5089194;28;20205;-79
2024/01/09 08:20:15;;;;;;;9.43;5.73;;;-6.30;99.90;;;;;;5088737;28;20336;-81
2024/01/09 08:22:42;;;;;;;9.97;6.10;;;-6.30;99.90;;;;;;5087741;28;20218;-80
2024/01/09 08:25:09;;;;;;;7.63;5.47;;;-6.20;99.90;;;;;;5088627;28;20297;-80
2024/01/09 08:27:36;;;;;;;10.20;6.43;;;-6.20;99.90;;;;;;5088697;28;20811;-78
2024/01/09 08:30:03;;;;;;;8.50;5.63;;;-6.10;99.90;;;;;;5088693;28;20220;-79
2024/01/09 08:32:32;;;;;;;9.57;6.20;;;-6.00;99.90;;;;;;5088741;28;20610;-78
2024/01/09 08:34:58;;;;;;;9.37;5.73;;;-5.90;99.90;;;;;;5088719;28;20840;-79
2024/01/09 08:37:25;;;;;;;8.97;5.83;;;-5.80;99.90;;;;;;5088707;28;20210;-78
2024/01/09 08:39:52;;;;;;;7.70;5.93;;;-5.80;99.90;;;;;;5088018;28;20251;-80
2024/01/09 08:42:19;;;;;;;7.53;5.60;;;-5.70;99.90;;;;;;5088825;28;20213;-78
2024/01/09 08:44:46;;;;;;;11.53;6.50;;;-5.70;99.90;;;;;;5089177;28;20293;-78
2024/01/09 08:47:13;;;;;;;9.87;5.87;;;-5.70;99.90;;;;;;5088858;28;20289;-78
2024/01/09 08:49:41;;;;;;;10.07;6.20;;;-5.60;99.90;;;;;;5088241;28;20603;-78
2024/01/09 08:52:08;;;;;;;9.57;6.53;;;-5.50;99.90;;;;;;5088405;28;20329;-79
2024/01/09 08:54:35;;;;;;;9.70;6.00;;;-5.40;99.90;;;;;;5087903;28;20775;-79
2024/01/09 08:57:02;;;;;;;9.43;6.17;;;-5.30;99.90;;;;;;5088745;28;20215;-78
2024/01/09 08:59:29;;;;;;;10.43;6.70;;;-5.30;99.90;;;;;;5087970;28;20246;-78
2024/01/09 09:01:56;;;;;;;10.40;6.60;;;-5.10;99.90;;;;;;5087937;28;20322;-78
2024/01/09 09:04:23;;;;;;;10.03;6.37;;;-5.00;99.90;;;;;;5087673;28;20272;-78
2024/01/09 09:06:51;;;;;;;10.33;6.87;;;-4.90;99.90;;;;;;5088122;28;20203;-79
2024/01/09 09:09:18;;;;;;;12.40;6.03;;;-4.90;99.90;;;;;;5087469;28;20330;-77
2024/01/09 09:11:45;;;;;;;9.40;6.47;;;-4.80;99.90;;;;;;5088326;28;20207;-78
2024/01/09 09:14:12;;;;;;;10.47;6.80;;;-4.70;99.90;;;;;;5087911;28;20295;-78
2024/01/09 09:16:40;;;;;;;11.17;7.13;;;-4.70;99.90;;;;;;5087344;28;20249;-77
2024/01/09 09:19:07;;;;;;;8.53;6.67;;;-4.60;99.90;;;;;;5087586;28;20713;-79
2024/01/09 09:21:33;;;;;;;9.10;6.40;;;-4.50;99.90;;;;;;5087676;28;20296;-78
2024/01/09 09:24:02;;;;;;;13.33;7.20;;;-4.40;99.90;;;;;;5087789;28;20234;-78
2024/01/09 09:26:29;;;;;;;9.70;6.70;;;-4.30;99.90;;;;;;5087513;28;20936;-78
2024/01/09 09:28:56;;;;;;;13.47;7.20;;;-4.10;99.90;;;;;;5087905;28;20214;-78
2024/01/09 09:31:23;;;;;;;11.40;7.63;;;-4.00;99.90;;;;;;5087386;28;20242;-78
2024/01/09 09:33:50;;;;;;;12.70;7.27;;;-4.10;99.90;;;;;;5087386;28;20245;-79
2024/01/09 09:36:17;;;;;;;12.00;7.77;;;-4.10;99.90;;;;;;5087518;28;20205;-79
2024/01/09 09:38:44;;;;;;;9.37;6.90;;;-4.00;99.90;;;;;;5087491;28;20309;-79
2024/01/09 09:41:16;;;;;;;13.13;7.20;;;-3.90;99.90;;;;;;5087624;28;20318;-79
2024/01/09 09:43:49;;;;;;;11.60;6.80;;;-3.80;99.90;;;;;;5087855;28;20202;-78
2024/01/09 09:46:20;;;;;;;10.37;7.27;;;-3.70;99.90;;;;;;5087678;28;20188;-79
2024/01/09 09:48:52;;;;;;;13.30;7.30;;;-3.60;99.90;;;;;;5087956;28;20302;-79
2024/01/09 09:51:20;;;;;;;11.77;7.17;;;-3.50;99.90;;;;;;5087722;28;20230;-79
2024/01/09 09:53:47;;;;;;;10.53;6.77;;;-3.60;99.90;;;;;;5087622;28;20267;-79
2024/01/09 09:56:15;;;;;;;10.47;7.30;;;-3.50;99.90;;;;;;5088041;28;20218;-79
2024/01/09 09:58:42;;;;;;;12.00;7.17;;;-3.40;99.90;;;;;;5087393;28;20634;-79
2024/01/09 10:01:11;;;;;;;13.27;7.20;;;-3.40;99.90;;;;;;5087275;28;20785;-78
2024/01/09 10:03:45;;;;;;;11.13;7.43;;;-3.40;99.90;;;;;;5087160;28;20925;-79
2024/01/09 10:06:13;;;;;;;10.30;7.30;;;-3.30;99.90;;;;;;5087799;28;20276;-79
2024/01/09 10:08:41;;;;;;;10.30;6.93;;;-3.10;99.90;;;;;;5087073;28;20232;-78
2024/01/09 10:11:09;;;;;;;10.40;6.80;;;-3.20;99.90;;;;;;5088015;28;20206;-79
2024/01/09 10:13:37;;;;;;;13.70;6.77;;;-3.10;99.90;;;;;;5087343;28;20212;-78
2024/01/09 10:16:04;;;;;;;11.33;7.07;;;-3.00;99.90;;;;;;5079002;28;20297;-79
2024/01/09 10:18:32;;;;;;;11.27;7.37;;;-3.00;99.90;;;;;;5086923;28;20240;-79
2024/01/09 10:20:59;;;;;;;11.00;7.30;;;-2.80;99.90;;;;;;5087283;28;20888;-78
2024/01/09 10:23:27;;;;;;;9.90;7.00;;;-2.70;99.90;;;;;;5087121;28;20242;-79
2024/01/09 10:25:54;;;;;;;10.77;7.47;;;-2.60;99.90;;;;;;5087074;28;20233;-79
2024/01/09 10:28:21;;;;;;;9.87;6.60;;;-2.50;99.90;;;;;;5087289;28;20720;-78
2024/01/09 10:30:52;;;;;;;11.60;6.93;;;-2.40;99.90;;;;;;5087647;28;20226;-78
2024/01/09 10:33:19;;;;;;;8.80;6.53;;;-2.30;99.90;;;;;;5087186;28;20207;-78
2024/01/09 10:35:46;;;;;;;11.77;6.87;;;-2.20;99.90;;;;;;5087610;28;20198;-78
2024/01/09 10:38:13;;;;;;;10.10;6.80;;;-2.10;99.90;;;;;;5087338;28;20203;-79
2024/01/09 10:40:40;;;;;;;9.03;6.77;;;-2.00;99.90;;;;;;5087112;28;20649;-78
2024/01/09 10:43:07;;;;;;;10.43;7.10;;;-2.00;99.90;;;;;;5087210;28;20260;-79
2024/01/09 10:45:34;;;;;;;11.30;7.70;;;-1.90;99.90;;;;;;5087383;28;20696;-78
2024/01/09 10:48:06;;;;;;;9.67;7.30;;;-1.70;99.90;;;;;;5090795;28;20210;-79
2024/01/09 10:50:34;;;;;;;10.70;7.70;;;-1.70;99.90;;;;;;5091297;28;20243;-79
2024/01/09 10:53:01;;;;;;;10.53;7.20;;;-1.60;99.90;;;;;;5091015;28;20211;-79
2024/01/09 10:55:29;;;;;;;14.23;8.37;;;-1.60;99.90;;;;;;5091271;28;20595;-80
2024/01/09 10:57:56;;;;;;;12.10;8.37;;;-1.50;99.90;;;;;;5091031;28;20215;-79
2024/01/09 11:00:25;;;;;;;12.17;8.13;;;-1.40;99.90;;;;;;5090952;28;20238;-80
2024/01/09 11:02:52;;;;;;;12.47;8.23;;;-1.30;99.90;;;;;;5090899;28;20226;-81
2024/01/09 11:05:20;;;;;;;9.23;7.07;;;-1.30;99.90;;;;;;5090716;28;20245;-79
2024/01/09 11:07:50;;;;;;;11.37;7.63;;;-1.20;99.90;;;;;;5090286;28;20299;-80
2024/01/09 11:10:19;;;;;;;12.10;8.57;;;-1.10;99.90;;;;;;5090461;28;20329;-80
2024/01/09 11:12:50;;;;;;;9.23;7.73;;;-0.90;99.90;;;;;;5090175;28;20218;-80
2024/01/09 11:15:22;;;;;;;12.70;8.33;;;-0.80;99.90;;;;;;5090697;28;20292;-80
2024/01/09 11:17:54;;;;;;;10.57;7.70;;;-0.70;99.90;;;;;;5090478;28;20709;-79
2024/01/09 11:20:22;;;;;;;10.83;7.53;;;-0.50;99.90;;;;;;5090619;28;20282;-79
2024/01/09 11:22:49;;;;;;;10.70;7.70;;;-0.50;99.90;;;;;;5090504;28;20347;-79
2024/01/09 11:25:21;;;;;;;10.80;7.70;;;-0.40;99.90;;;;;;5090072;28;20265;-81
2024/01/09 11:27:50;;;;;;;11.83;7.80;;;-0.20;99.90;;;;;;5090185;28;20281;-79
2024/01/09 11:30:18;;;;;;;9.43;7.37;;;-0.30;99.90;;;;;;5090075;28;20203;-80
2024/01/09 11:32:46;;;;;;;11.40;7.67;;;-0.20;99.90;;;;;;5090013;28;20246;-80
2024/01/09 11:35:15;;;;;;;11.37;7.67;;;-0.10;99.90;;;;;;5090353;28;20313;-80
2024/01/09 11:37:45;;;;;;;12.87;8.23;;;-0.10;99.90;;;;;;5089829;28;20210;-80
2024/01/09 11:40:14;;;;;;;11.90;8.23;;;-0.10;99.90;;;;;;5090275;28;20218;-82
2024/01/09 11:42:45;;;;;;;13.03;7.97;;;-0.10;99.90;;;;;;5090130;28;20326;-80
2024/01/09 11:45:13;;;;;;;12.60;8.17;;;0.00;99.90;;;;;;5090339;28;20205;-80
2024/01/09 11:47:40;;;;;;;12.07;8.03;;;0.10;99.90;;;;;;5089731;28;20239;-80
2024/01/09 11:50:08;;;;;;;12.43;8.50;;;0.00;99.90;;;;;;5089861;28;20226;-80
2024/01/09 11:52:35;;;;;;;11.30;7.90;;;0.10;99.90;;;;;;5089704;28;20285;-79
2024/01/09 11:55:07;;;;;;;10.30;7.67;;;0.10;99.90;;;;;;5089575;28;20238;-80
2024/01/09 11:57:35;;;;;;;10.97;8.40;;;0.20;99.90;;;;;;5089533;28;20216;-80
2024/01/09 12:00:04;;;;;;;11.83;7.60;;;0.30;99.90;;;;;;5089946;28;20214;-80
2024/01/09 12:02:33;;;;;;;14.43;7.27;;;0.20;99.90;;;;;;5089150;28;20266;-80
2024/01/09 12:05:03;;;;;;;11.33;8.23;;;0.10;99.90;;;;;;5089559;28;20211;-80
2024/01/09 12:07:30;;;;;;;12.30;8.17;;;0.10;99.90;;;;;;5088299;28;20198;-80
2024/01/09 12:09:56;;;;;;;12.27;8.30;;;0.00;99.90;;;;;;5081256;28;20329;-80
2024/01/09 12:12:26;;;;;;;11.50;7.27;;;0.00;99.90;;;;;;5089177;28;20210;-80
2024/01/09 12:14:54;;;;;;;11.37;7.70;;;0.00;99.90;;;;;;5089431;28;20750;-80
2024/01/09 12:17:23;;;;;;;10.33;7.70;;;0.00;99.90;;;;;;5089373;28;20297;-80
2024/01/09 12:19:52;;;;;;;11.13;7.73;;;0.00;99.90;;;;;;5089323;28;20304;-80
2024/01/09 12:22:20;;;;;;;12.83;8.00;;;0.00;99.90;;;;;;5089496;28;20264;-80
2024/01/09 12:24:48;;;;;;;11.30;7.37;;;0.00;99.90;;;;;;5088648;28;20233;-79
2024/01/09 12:27:15;;;;;;;11.03;7.77;;;0.00;99.90;;;;;;5089097;28;20306;-81
2024/01/09 12:29:44;;;;;;;14.87;7.90;;;0.00;99.90;;;;;;5088699;28;20253;-80
2024/01/09 12:32:11;;;;;;;11.03;7.47;;;0.00;99.90;;;;;;5088897;28;20256;-79
2024/01/09 12:34:39;;;;;;;9.23;7.63;;;0.00;99.90;;;;;;5089030;28;20203;-80
2024/01/09 12:37:06;;;;;;;11.73;7.83;;;0.00;99.90;;;;;;5088857;28;20217;-80
2024/01/09 12:39:35;;;;;;;15.40;8.27;;;0.00;99.90;;;;;;5088590;28;20241;-80
2024/01/09 12:42:07;;;;;;;11.67;8.03;;;0.10;99.90;;;;;;5088284;28;20645;-80
2024/01/09 12:44:34;;;;;;;10.83;7.57;;;0.20;99.90;;;;;;5088414;28;20252;-80
2024/01/09 12:47:03;;;;;;;10.27;7.37;;;0.30;99.90;;;;;;5088478;28;20245;-80